Astrid Conroy — ZGAQ5 — position and weather

sailwx.info

Track history (hours):
 
Tides and Currents Weather Stations Pressure Air Temp Water Temp Dewpoint Dewpoint Depression Visibility Wind Speed Wind Dir Waves Ship Positions

Astrid Conroy

Last reported at 2016-Apr-27 14:22 UTC. Time now 2016-Apr-30 18:50 UTC.
Position N 37°21' W 000°52'.

Length 58 m; draft 3.4 m.

Type: Pleasure craft. MMSI: 319031500.

Date/timePositionNaut miles runAvg speedWind from/ knotsBaromVisibWave heightAir tempDewpointWater temp
2016-Apr-27 14:22N 37°21' W 000°52'2914.4
2016-Apr-27 12:22N 37°41' W 000°26'15413.7
2016-Apr-27 01:11N 39°50' E 001°21'914.3
2016-Apr-27 00:33N 39°58' E 001°25'1313.4
2016-Apr-26 23:33N 40°10' E 001°33'1515.1
2016-Apr-26 22:33N 40°24' E 001°42'1514.9
2016-Apr-26 21:33N 40°37' E 001°50'1515.1
2016-Apr-26 20:33N 40°51' E 001°59'1515.3
2016-Apr-26 19:33N 41°05' E 002°08'17 4.3
2016-Apr-26 15:30N 41°22' E 002°11'  
Track history (hours):
 
Tides and Currents Weather Stations Pressure Air Temp Water Temp Dewpoint Dewpoint Depression Visibility Wind Speed Wind Dir Waves Ship Positions

Astrid Conroy

Last reported at 2016-Apr-27 14:22 UTC. Time now 2016-Apr-30 18:50 UTC.
Position N 37°21' W 000°52'.

Length 58 m; draft 3.4 m.

Type: Pleasure craft. MMSI: 319031500.

Date/timePositionNaut miles runAvg speedWind from/ knotsBaromVisibWave heightAir tempDewpointWater temp
2016-Apr-27 14:22N 37°21' W 000°52'2914.4
2016-Apr-27 12:22N 37°41' W 000°26'15413.7
2016-Apr-27 01:11N 39°50' E 001°21'914.3
2016-Apr-27 00:33N 39°58' E 001°25'1313.4
2016-Apr-26 23:33N 40°10' E 001°33'1515.1
2016-Apr-26 22:33N 40°24' E 001°42'1514.9
2016-Apr-26 21:33N 40°37' E 001°50'1515.1
2016-Apr-26 20:33N 40°51' E 001°59'1515.3
2016-Apr-26 19:33N 41°05' E 002°08'17 4.3
2016-Apr-26 15:30N 41°22' E 002°11'  

Dump ship's entire track history